createdAt,value
2023-03-21T00:00:10.415Z,27.63
2023-03-21T00:01:09.355Z,27.62
2023-03-21T00:02:09.378Z,27.65
2023-03-21T00:03:09.282Z,27.65
2023-03-21T00:04:09.287Z,27.63
2023-03-21T00:05:15.449Z,27.67
2023-03-21T00:06:10.085Z,27.66
2023-03-21T00:07:09.030Z,27.65
2023-03-21T00:08:08.978Z,27.66
2023-03-21T00:09:08.916Z,27.64
2023-03-21T00:10:16.535Z,27.63
2023-03-21T00:11:09.813Z,27.70
2023-03-21T00:12:08.744Z,27.66
2023-03-21T00:13:08.680Z,27.67
2023-03-21T00:14:08.663Z,27.69
2023-03-21T00:15:08.572Z,27.66
2023-03-21T00:16:22.983Z,27.67
2023-03-21T00:17:08.463Z,27.62
2023-03-21T00:18:08.407Z,27.63
2023-03-21T00:19:08.340Z,27.69
2023-03-21T00:20:08.300Z,27.66
2023-03-21T00:21:38.417Z,27.66
2023-03-21T00:22:09.370Z,27.66
2023-03-21T00:23:08.111Z,27.58
2023-03-21T00:24:08.119Z,27.62
2023-03-21T00:25:08.010Z,27.66
2023-03-21T00:26:07.945Z,27.56
2023-03-21T00:27:39.455Z,27.63
2023-03-21T00:28:08.950Z,27.58
2023-03-21T00:29:07.786Z,27.66
2023-03-21T00:30:07.719Z,27.64
2023-03-21T00:31:07.680Z,27.67
2023-03-21T00:32:07.602Z,27.62
2023-03-21T00:34:08.494Z,27.62
2023-03-21T00:35:38.329Z,27.63
2023-03-21T00:36:08.892Z,27.66
2023-03-21T00:37:07.331Z,27.66
2023-03-21T00:38:07.269Z,27.61
2023-03-21T00:39:07.225Z,27.67
2023-03-21T00:40:10.712Z,27.66
2023-03-21T00:41:19.338Z,27.67
2023-03-21T00:42:08.051Z,27.69
2023-03-21T00:43:07.012Z,27.63
2023-03-21T00:44:06.923Z,27.64
2023-03-21T00:45:06.899Z,27.66
2023-03-21T00:46:06.829Z,27.62
2023-03-21T00:47:08.124Z,27.67
2023-03-21T00:48:06.765Z,27.74
2023-03-21T00:49:06.661Z,27.67
2023-03-21T00:50:06.629Z,27.69
2023-03-21T00:51:06.592Z,27.67
2023-03-21T00:52:15.144Z,27.67
2023-03-21T00:53:07.451Z,27.64
2023-03-21T00:54:06.417Z,27.63
2023-03-21T00:55:06.348Z,27.69
2023-03-21T00:56:06.280Z,27.60
2023-03-21T00:57:06.234Z,27.59
2023-03-21T00:58:06.197Z,27.61
2023-03-21T00:59:06.123Z,27.59
2023-03-21T01:00:06.066Z,27.64
2023-03-21T01:01:06.053Z,27.66
2023-03-21T01:02:06.009Z,27.64
2023-03-21T01:03:21.309Z,27.64
2023-03-21T01:04:06.853Z,27.66
2023-03-21T01:05:05.815Z,27.63
2023-03-21T01:06:06.062Z,27.68
2023-03-21T01:07:05.709Z,27.69
2023-03-21T01:08:17.436Z,27.62
2023-03-21T01:09:06.615Z,27.63
2023-03-21T01:10:05.536Z,27.63
2023-03-21T01:11:05.502Z,27.64
2023-03-21T01:12:05.429Z,27.64
2023-03-21T01:13:05.385Z,27.60
2023-03-21T01:14:20.893Z,27.63
2023-03-21T01:15:06.268Z,27.66
2023-03-21T01:16:05.262Z,27.66
2023-03-21T01:17:05.153Z,27.64
2023-03-21T01:18:05.096Z,27.63
2023-03-21T01:19:07.171Z,27.63
2023-03-21T01:20:04.976Z,27.59
2023-03-21T01:21:04.919Z,27.64
2023-03-21T01:22:04.883Z,27.60
2023-03-21T01:23:04.823Z,27.63
2023-03-21T01:24:04.781Z,27.61
2023-03-21T01:25:21.278Z,27.64
2023-03-21T01:26:04.651Z,27.63
2023-03-21T01:27:04.602Z,27.69
2023-03-21T01:28:04.538Z,27.63
2023-03-21T01:29:04.468Z,27.66
2023-03-21T01:30:11.144Z,27.64
2023-03-21T01:31:05.478Z,27.66
2023-03-21T01:32:04.302Z,27.61
2023-03-21T01:33:04.224Z,27.64
2023-03-21T01:34:04.164Z,27.63
2023-03-21T01:35:04.117Z,27.61
2023-03-21T01:36:12.849Z,27.67
2023-03-21T01:37:05.067Z,27.67
2023-03-21T01:38:03.935Z,27.61
2023-03-21T01:39:03.888Z,27.67
2023-03-21T01:40:03.826Z,27.66
2023-03-21T01:41:08.593Z,27.61
2023-03-21T01:42:04.726Z,27.61
2023-03-21T01:43:03.653Z,27.60
2023-03-21T01:44:03.616Z,27.61
2023-03-21T01:45:03.549Z,27.63
2023-03-21T01:46:03.591Z,27.67
2023-03-21T01:47:11.159Z,27.69
2023-03-21T01:48:04.411Z,27.66
2023-03-21T01:49:03.345Z,27.64
2023-03-21T01:50:03.278Z,27.64
2023-03-21T01:51:03.238Z,27.61
2023-03-21T01:52:11.530Z,27.63
2023-03-21T01:53:04.141Z,27.60
2023-03-21T01:54:03.075Z,27.66
2023-03-21T01:55:03.010Z,27.60
2023-03-21T01:56:02.950Z,27.64
2023-03-21T01:57:02.916Z,27.61
2023-03-21T01:58:06.455Z,27.61
2023-03-21T01:59:02.796Z,27.60
2023-03-21T02:00:02.762Z,27.66
2023-03-21T02:01:02.889Z,27.60
2023-03-21T02:02:02.640Z,27.57
2023-03-21T02:03:13.683Z,27.61
2023-03-21T02:04:03.610Z,27.60
2023-03-21T02:05:02.483Z,27.64
2023-03-21T02:06:02.462Z,27.61
2023-03-21T02:07:02.376Z,27.68
2023-03-21T02:08:02.331Z,27.58
2023-03-21T02:09:02.287Z,27.63
2023-03-21T02:10:02.226Z,27.58
2023-03-21T02:11:02.177Z,27.63
2023-03-21T02:12:02.119Z,27.60
2023-03-21T02:13:02.089Z,27.60
2023-03-21T02:14:06.673Z,27.58
2023-03-21T02:15:02.981Z,27.60
2023-03-21T02:16:01.919Z,27.61
2023-03-21T02:17:01.934Z,27.69
2023-03-21T02:18:01.820Z,27.65
2023-03-21T02:19:01.780Z,27.69
2023-03-21T02:20:01.720Z,27.67
2023-03-21T02:21:01.661Z,27.63
2023-03-21T02:22:01.609Z,27.61
2023-03-21T02:23:01.560Z,27.66
2023-03-21T02:24:01.515Z,27.64
2023-03-21T02:25:06.145Z,27.60
2023-03-21T02:26:02.428Z,27.60
2023-03-21T02:27:04.252Z,27.58
2023-03-21T02:28:01.317Z,27.64
2023-03-21T02:29:01.271Z,27.63
2023-03-21T02:30:01.246Z,27.64
2023-03-21T02:31:01.244Z,27.61
2023-03-21T02:32:16.248Z,27.61
2023-03-21T02:33:02.101Z,27.66
2023-03-21T02:34:01.031Z,27.63
2023-03-21T02:35:00.987Z,27.61
2023-03-21T02:36:11.999Z,27.63
2023-03-21T02:37:01.893Z,27.61
2023-03-21T02:38:01.183Z,27.63
2023-03-21T02:39:00.797Z,27.61
2023-03-21T02:40:00.738Z,27.66
2023-03-21T02:41:03.417Z,27.61
2023-03-21T02:42:00.637Z,27.60
2023-03-21T02:43:01.483Z,27.37
2023-03-21T02:44:00.516Z,26.90
2023-03-21T02:45:00.459Z,26.31
2023-03-21T02:46:00.452Z,26.22
2023-03-21T02:47:06.115Z,26.12
2023-03-21T02:48:01.365Z,25.84
2023-03-21T02:49:00.316Z,25.74
2023-03-21T02:50:00.233Z,25.68
2023-03-21T02:51:00.184Z,25.58
2023-03-21T02:52:05.463Z,25.55
2023-03-21T02:53:01.102Z,25.55
2023-03-21T02:54:26.112Z,25.45
2023-03-21T02:55:01.039Z,25.52
2023-03-21T02:55:59.982Z,25.37
2023-03-21T02:56:59.937Z,25.38
2023-03-21T02:58:11.649Z,25.31
2023-03-21T02:59:00.907Z,25.29
2023-03-21T03:00:07.464Z,25.22
2023-03-21T03:01:00.804Z,25.28
2023-03-21T03:01:59.760Z,25.18
2023-03-21T03:03:09.685Z,25.20
2023-03-21T03:04:00.728Z,25.16
2023-03-21T03:04:59.676Z,25.09
2023-03-21T03:05:59.637Z,25.04
2023-03-21T03:06:59.613Z,25.00
2023-03-21T03:07:59.579Z,25.01
2023-03-21T03:09:02.671Z,25.02
2023-03-21T03:09:59.533Z,25.05
2023-03-21T03:10:59.502Z,24.96
2023-03-21T03:11:59.471Z,24.99
2023-03-21T03:12:59.442Z,24.95
2023-03-21T03:13:59.426Z,24.96
2023-03-21T03:15:03.478Z,24.89
2023-03-21T03:15:59.413Z,24.89
2023-03-21T03:16:59.336Z,24.90
2023-03-21T03:17:59.284Z,24.87
2023-03-21T03:18:59.265Z,24.95
2023-03-21T03:20:04.268Z,24.90
2023-03-21T03:21:00.186Z,24.89
2023-03-21T03:21:59.167Z,24.87
2023-03-21T03:22:59.127Z,24.86
2023-03-21T03:23:59.119Z,24.87
2023-03-21T03:25:02.815Z,24.95
2023-03-21T03:25:59.048Z,24.86
2023-03-21T03:26:59.029Z,24.82
2023-03-21T03:27:58.993Z,24.85
2023-03-21T03:28:58.980Z,24.82
2023-03-21T03:29:58.938Z,24.86
2023-03-21T03:31:08.637Z,24.89
2023-03-21T03:31:59.932Z,24.80
2023-03-21T03:32:58.860Z,24.80
2023-03-21T03:33:58.849Z,24.83
2023-03-21T03:34:58.807Z,24.86
2023-03-21T03:36:05.450Z,24.83
2023-03-21T03:36:59.762Z,24.84
2023-03-21T03:37:58.747Z,24.84
2023-03-21T03:38:58.709Z,24.79
2023-03-21T03:39:58.694Z,24.76
2023-03-21T03:40:58.650Z,24.84
2023-03-21T03:42:18.338Z,24.85
2023-03-21T03:42:59.604Z,24.89
2023-03-21T03:43:58.604Z,24.91
2023-03-21T03:44:58.568Z,24.98
2023-03-21T03:45:58.519Z,24.88
2023-03-21T03:46:58.497Z,24.89
2023-03-21T03:47:58.497Z,24.87
2023-03-21T03:48:58.495Z,25.00
2023-03-21T03:49:58.411Z,24.97
2023-03-21T03:50:58.385Z,24.95
2023-03-21T03:51:58.366Z,24.98
2023-03-21T03:52:59.887Z,24.95
2023-03-21T03:53:58.318Z,25.06
2023-03-21T03:54:58.311Z,25.02
2023-03-21T03:55:58.280Z,24.99
2023-03-21T03:56:58.259Z,24.98
2023-03-21T03:57:58.234Z,25.05
2023-03-21T03:58:58.216Z,25.05
2023-03-21T03:59:58.205Z,24.98
2023-03-21T04:00:58.160Z,25.04
2023-03-21T04:01:58.194Z,25.02
2023-03-21T04:02:58.181Z,25.01
2023-03-21T04:04:11.909Z,25.05
2023-03-21T04:04:59.076Z,24.99
2023-03-21T04:05:58.037Z,24.99
2023-03-21T04:06:58.238Z,24.98
2023-03-21T04:07:57.989Z,25.02
2023-03-21T04:08:58.898Z,24.98
2023-03-21T04:09:57.945Z,24.98
2023-03-21T04:10:57.935Z,25.03
2023-03-21T04:11:57.891Z,25.02
2023-03-21T04:12:57.883Z,25.00
2023-03-21T04:13:57.865Z,25.09
2023-03-21T04:15:09.504Z,25.09
2023-03-21T04:15:57.856Z,25.07
2023-03-21T04:16:57.783Z,25.14
2023-03-21T04:17:57.759Z,25.14
2023-03-21T04:18:57.735Z,25.14
2023-03-21T04:20:08.802Z,25.15
2023-03-21T04:20:58.709Z,25.18
2023-03-21T04:21:57.678Z,25.19
2023-03-21T04:22:57.658Z,25.11
2023-03-21T04:23:57.647Z,25.14
2023-03-21T04:24:58.862Z,25.11
2023-03-21T04:25:57.757Z,25.16
2023-03-21T04:26:57.737Z,25.17
2023-03-21T04:27:57.739Z,25.14
2023-03-21T04:28:57.709Z,25.18
2023-03-21T04:29:57.685Z,25.14
2023-03-21T04:31:03.525Z,25.12
2023-03-21T04:31:58.692Z,25.14
2023-03-21T04:32:57.648Z,25.22
2023-03-21T04:33:57.613Z,25.23
2023-03-21T04:34:57.612Z,25.22
2023-03-21T04:35:57.609Z,25.23
2023-03-21T04:36:57.569Z,25.19
2023-03-21T04:37:57.563Z,25.21
2023-03-21T04:38:57.545Z,25.21
2023-03-21T04:39:57.516Z,25.23
2023-03-21T04:40:57.493Z,25.27
2023-03-21T04:41:57.472Z,25.33
2023-03-21T04:42:57.454Z,25.30
2023-03-21T04:43:57.437Z,25.32
2023-03-21T04:44:57.410Z,25.27
2023-03-21T04:45:57.501Z,25.24
2023-03-21T04:46:57.379Z,25.25
2023-03-21T04:47:57.432Z,25.29
2023-03-21T04:48:57.368Z,25.31
2023-03-21T04:49:57.378Z,25.31
2023-03-21T04:50:57.320Z,25.28
2023-03-21T04:51:57.312Z,25.24
2023-03-21T04:52:57.301Z,25.31
2023-03-21T04:53:57.270Z,25.31
2023-03-21T04:54:57.293Z,25.28
2023-03-21T04:55:57.244Z,25.30
2023-03-21T04:56:57.206Z,25.32
2023-03-21T04:57:57.198Z,25.26
2023-03-21T04:58:57.166Z,25.32
2023-03-21T04:59:57.152Z,25.32
2023-03-21T05:00:57.164Z,25.31
2023-03-21T05:01:57.112Z,25.29
2023-03-21T05:02:57.099Z,25.28
2023-03-21T05:03:57.123Z,25.30
2023-03-21T05:04:57.060Z,25.29
2023-03-21T05:05:57.053Z,25.29
2023-03-21T05:06:57.029Z,25.41
2023-03-21T05:07:56.999Z,25.31
2023-03-21T05:08:56.979Z,25.32
2023-03-21T05:09:56.972Z,25.29
2023-03-21T05:10:56.961Z,25.33
2023-03-21T05:11:56.954Z,25.35
2023-03-21T05:12:56.927Z,25.33
2023-03-21T05:13:56.903Z,25.34
2023-03-21T05:14:56.915Z,25.30
2023-03-21T05:15:56.972Z,25.40
2023-03-21T05:16:56.882Z,25.36
2023-03-21T05:17:56.850Z,25.40
2023-03-21T05:18:56.837Z,25.37
2023-03-21T05:19:56.820Z,25.34
2023-03-21T05:20:56.821Z,25.40
2023-03-21T05:21:56.805Z,25.36
2023-03-21T05:22:56.778Z,25.36
2023-03-21T05:23:56.764Z,25.36
2023-03-21T05:24:56.790Z,25.34
2023-03-21T05:25:56.757Z,25.38
2023-03-21T05:26:56.745Z,25.34
2023-03-21T05:27:56.743Z,25.45
2023-03-21T05:28:56.725Z,25.40
2023-03-21T05:29:56.698Z,25.47
2023-03-21T05:30:56.724Z,25.42
2023-03-21T05:31:56.673Z,25.36
2023-03-21T05:32:56.664Z,25.41
2023-03-21T05:33:56.657Z,25.38
2023-03-21T05:34:56.626Z,25.36
2023-03-21T05:35:56.674Z,25.36
2023-03-21T05:36:56.609Z,25.31
2023-03-21T05:37:56.604Z,25.34
2023-03-21T05:38:56.586Z,25.37
2023-03-21T05:39:56.555Z,25.41
2023-03-21T05:40:56.540Z,25.40
2023-03-21T05:41:56.534Z,25.38
2023-03-21T05:42:56.519Z,25.42
2023-03-21T05:43:56.492Z,25.44
2023-03-21T05:44:56.489Z,25.50
2023-03-21T05:45:56.510Z,25.47
2023-03-21T05:46:56.453Z,25.45
2023-03-21T05:47:56.490Z,25.50
2023-03-21T05:48:56.434Z,25.41
2023-03-21T05:49:56.436Z,25.42
2023-03-21T05:50:56.404Z,25.42
2023-03-21T05:51:56.384Z,25.45
2023-03-21T05:52:56.367Z,25.49
2023-03-21T05:53:56.369Z,25.45
2023-03-21T05:54:56.355Z,25.50
2023-03-21T05:55:56.350Z,25.45
2023-03-21T05:56:56.342Z,25.45
2023-03-21T05:57:56.330Z,25.40
2023-03-21T05:58:56.309Z,25.54
2023-03-21T05:59:56.291Z,25.47
2023-03-21T06:00:56.292Z,25.43
2023-03-21T06:01:56.268Z,25.38
2023-03-21T06:02:56.287Z,25.43
2023-03-21T06:03:56.268Z,25.43
2023-03-21T06:04:56.210Z,25.38
2023-03-21T06:05:56.212Z,25.40
2023-03-21T06:06:56.199Z,25.37
2023-03-21T06:07:56.167Z,25.48
2023-03-21T06:08:56.176Z,25.43
2023-03-21T06:09:56.143Z,25.46
2023-03-21T06:10:56.127Z,25.42
2023-03-21T06:11:56.125Z,25.47
2023-03-21T06:12:56.098Z,25.45
2023-03-21T06:13:56.094Z,25.45
2023-03-21T06:14:56.083Z,25.50
2023-03-21T06:15:56.097Z,25.50
2023-03-21T06:16:56.073Z,25.44
2023-03-21T06:17:56.050Z,25.50
2023-03-21T06:18:56.045Z,25.50
2023-03-21T06:19:56.018Z,25.47
2023-03-21T06:20:56.001Z,25.46
2023-03-21T06:21:55.987Z,25.56
2023-03-21T06:22:55.977Z,25.49
2023-03-21T06:23:55.956Z,25.46
2023-03-21T09:44:46.896Z,26.14
2023-03-21T09:45:46.840Z,26.14
2023-03-21T09:46:46.824Z,26.06
2023-03-21T09:47:46.716Z,26.03
2023-03-21T09:48:56.749Z,26.00
2023-03-21T09:50:46.511Z,26.03
2023-03-21T09:51:46.433Z,25.96
2023-03-21T09:52:46.373Z,25.86
2023-03-21T09:53:46.320Z,26.00
2023-03-21T09:54:46.262Z,25.90
2023-03-21T09:55:46.247Z,25.93
2023-03-21T09:56:46.140Z,25.92
2023-03-21T09:57:46.084Z,25.93
2023-03-21T09:58:46.040Z,25.96
2023-03-21T09:59:45.989Z,26.07
2023-03-21T10:00:46.051Z,26.10
2023-03-21T12:01:38.368Z,27.04
2023-03-21T12:02:38.431Z,27.05
2023-03-21T12:03:47.247Z,26.90
2023-03-21T12:05:38.486Z,27.02
2023-03-21T12:06:38.065Z,27.12
2023-03-21T12:07:37.996Z,29.56
2023-03-21T12:08:37.953Z,29.16
2023-03-21T12:09:37.877Z,28.68
2023-03-21T12:10:37.796Z,29.56
2023-03-21T12:11:37.789Z,29.68
2023-03-21T12:12:39.482Z,30.37
2023-03-21T12:13:37.617Z,29.62
2023-03-21T12:14:37.537Z,28.84
2023-03-21T12:15:37.751Z,28.17
2023-03-21T12:16:37.448Z,28.03
2023-03-21T12:17:37.360Z,28.52
2023-03-21T12:18:37.275Z,27.99
2023-03-21T12:19:37.227Z,27.93
2023-03-21T12:20:37.141Z,27.28
2023-03-21T12:21:37.139Z,27.30
2023-03-21T12:22:37.006Z,27.04
2023-03-21T12:23:36.994Z,27.31
2023-03-21T12:24:36.978Z,27.15
2023-03-21T12:25:37.087Z,27.66
2023-03-21T12:26:36.771Z,27.48
2023-03-21T12:27:36.769Z,27.52
2023-03-21T12:28:36.624Z,27.56
2023-03-21T12:29:36.592Z,27.15
2023-03-21T12:30:36.517Z,27.15
2023-03-21T12:31:36.458Z,27.09
2023-03-21T12:32:36.355Z,27.06
2023-03-21T12:33:36.298Z,27.07
2023-03-21T12:34:36.227Z,27.11
2023-03-21T12:35:36.424Z,27.09
2023-03-21T12:36:36.120Z,27.09
2023-03-21T12:37:36.047Z,26.93
2023-03-21T12:38:35.978Z,27.01
2023-03-21T12:40:35.946Z,26.93
2023-03-21T14:10:30.402Z,26.65
2023-03-21T14:11:30.329Z,26.63
2023-03-21T14:13:33.075Z,26.66
2023-03-21T14:14:30.136Z,26.64
2023-03-21T14:15:30.076Z,26.66
2023-03-21T14:16:30.106Z,26.67
2023-03-21T14:17:29.988Z,26.70
2023-03-21T14:18:48.092Z,26.69
2023-03-21T14:19:30.842Z,26.69
2023-03-21T14:20:29.765Z,26.62
2023-03-21T14:21:29.846Z,26.62
2023-03-21T14:22:29.649Z,26.74
2023-03-21T14:23:29.588Z,26.70
2023-03-21T14:24:29.523Z,26.71
2023-03-21T14:25:34.042Z,26.70
2023-03-21T14:26:30.429Z,26.70
2023-03-21T14:27:29.335Z,26.70
2023-03-21T14:28:29.273Z,26.69
2023-03-21T14:29:31.517Z,26.73
2023-03-21T14:30:29.257Z,26.73
2023-03-21T14:31:29.223Z,26.70
2023-03-21T14:32:29.237Z,26.72
2023-03-21T14:33:29.107Z,26.72
2023-03-21T14:34:29.048Z,26.65
2023-03-21T14:35:28.979Z,26.69
2023-03-21T14:36:28.903Z,26.72
2023-03-21T14:37:28.827Z,26.66
2023-03-21T14:38:28.783Z,26.70
2023-03-21T14:39:28.726Z,26.66
2023-03-21T14:40:28.633Z,26.65
2023-03-21T14:41:28.577Z,26.65
2023-03-21T14:42:28.517Z,26.66
2023-03-21T14:43:28.454Z,26.66
2023-03-21T14:44:28.390Z,26.65
2023-03-21T14:45:28.333Z,26.72
2023-03-21T14:46:28.306Z,26.72
2023-03-21T14:47:28.249Z,26.72
2023-03-21T14:48:28.209Z,26.70
2023-03-21T14:49:28.055Z,26.69
2023-03-21T14:50:27.990Z,26.70
2023-03-21T14:51:27.927Z,26.73
2023-03-21T14:52:27.861Z,26.70
2023-03-21T14:53:27.804Z,26.73
2023-03-21T14:54:27.731Z,26.77
2023-03-21T14:55:27.686Z,26.74
2023-03-21T14:56:27.612Z,26.72
2023-03-21T14:57:27.589Z,26.76
2023-03-21T14:58:27.495Z,26.81
2023-03-21T14:59:27.426Z,26.77
2023-03-21T15:00:27.395Z,26.76
2023-03-21T15:01:27.335Z,26.79
2023-03-21T15:02:27.277Z,26.77
2023-03-21T15:03:27.198Z,26.80
2023-03-21T15:04:27.209Z,26.81
2023-03-21T15:05:27.123Z,26.80
2023-03-21T15:06:26.998Z,26.79
2023-03-21T15:07:26.953Z,26.80
2023-03-21T15:08:26.916Z,26.76
2023-03-21T15:09:26.839Z,26.81
2023-03-21T15:10:26.779Z,26.84
2023-03-21T15:11:26.698Z,26.84
2023-03-21T15:12:26.658Z,26.80
2023-03-21T15:13:26.607Z,26.85
2023-03-21T15:14:26.532Z,26.80
2023-03-21T15:15:27.603Z,26.77
2023-03-21T15:16:26.411Z,26.80
2023-03-21T15:17:26.317Z,26.81
2023-03-21T15:18:26.286Z,26.79
2023-03-21T15:19:26.197Z,26.79
2023-03-21T15:20:26.234Z,26.81
2023-03-21T15:21:26.094Z,26.79
2023-03-21T15:22:26.000Z,26.81
2023-03-21T15:23:25.942Z,26.82
2023-03-21T15:24:25.884Z,26.82
2023-03-21T15:25:25.817Z,26.82
2023-03-21T15:26:25.753Z,26.86
2023-03-21T15:27:25.715Z,26.86
2023-03-21T15:28:25.629Z,26.82
2023-03-21T15:29:25.566Z,26.78
2023-03-21T15:30:25.508Z,26.81
2023-03-21T15:31:25.457Z,26.81
2023-03-21T15:32:25.380Z,26.80
2023-03-21T15:33:25.319Z,26.80
2023-03-21T15:34:25.261Z,26.82
2023-03-21T15:35:25.198Z,26.82
2023-03-21T15:36:25.261Z,26.82
2023-03-21T15:37:25.082Z,26.84
2023-03-21T15:38:25.084Z,26.85
2023-03-21T15:39:24.947Z,26.90
2023-03-21T15:40:24.888Z,26.81
2023-03-21T15:41:24.840Z,26.85
2023-03-21T15:42:24.763Z,26.87
2023-03-21T15:43:24.709Z,26.88
2023-03-21T15:44:24.656Z,26.92
2023-03-21T15:45:24.614Z,26.90
2023-03-21T15:46:24.567Z,26.91
2023-03-21T15:47:24.504Z,26.94
2023-03-21T15:48:24.509Z,26.89
2023-03-21T15:49:24.363Z,26.82
2023-03-21T15:50:24.310Z,26.87
2023-03-21T15:51:24.239Z,26.91
2023-03-21T15:52:24.263Z,26.89
2023-03-21T15:53:24.119Z,26.91
2023-03-21T15:54:24.062Z,26.89
2023-03-21T15:55:24.004Z,26.92
2023-03-21T15:56:23.953Z,26.92
2023-03-21T15:57:23.907Z,26.95
2023-03-21T15:58:23.818Z,26.99
2023-03-21T15:59:23.777Z,26.93
2023-03-21T16:00:23.713Z,26.97
2023-03-21T16:01:23.690Z,26.97
2023-03-21T16:02:23.676Z,26.96
2023-03-21T16:03:23.605Z,26.96
2023-03-21T16:04:23.477Z,26.97
2023-03-21T16:05:23.411Z,27.02
2023-03-21T16:06:23.346Z,26.96
2023-03-21T16:07:23.285Z,27.00
2023-03-21T16:08:23.212Z,26.96
2023-03-21T16:09:23.161Z,26.99
2023-03-21T16:10:23.097Z,26.99
2023-03-21T16:11:23.045Z,26.97
2023-03-21T16:12:22.974Z,27.00
2023-03-21T16:13:22.942Z,27.00
2023-03-21T16:14:22.883Z,27.00
2023-03-21T16:15:22.820Z,27.09
2023-03-21T16:16:22.830Z,27.00
2023-03-21T16:17:22.698Z,27.00
2023-03-21T16:18:22.668Z,26.99
2023-03-21T16:19:22.609Z,26.99
2023-03-21T16:20:22.536Z,27.01
2023-03-21T16:21:22.477Z,26.99
2023-03-21T16:22:22.445Z,27.03
2023-03-21T16:23:22.375Z,27.00
2023-03-21T16:24:22.327Z,27.00
2023-03-21T16:25:22.276Z,27.01
2023-03-21T16:26:22.207Z,27.03
2023-03-21T16:27:22.168Z,27.04
2023-03-21T16:28:22.117Z,27.00
2023-03-21T16:29:22.085Z,27.03
2023-03-21T16:30:21.993Z,27.04
2023-03-21T16:31:22.034Z,27.07
2023-03-21T16:32:21.888Z,27.05
2023-03-21T16:33:21.836Z,27.04
2023-03-21T16:34:21.797Z,27.07
2023-03-21T16:35:23.519Z,27.05
2023-03-21T16:36:21.677Z,27.03
2023-03-21T16:37:21.636Z,27.04
2023-03-21T16:38:21.570Z,27.09
2023-03-21T16:39:21.545Z,27.12
2023-03-21T16:40:21.580Z,27.14
2023-03-21T16:41:21.419Z,27.11
2023-03-21T16:42:21.373Z,27.08
2023-03-21T16:43:21.314Z,27.09
2023-03-21T16:44:21.266Z,27.11
2023-03-21T16:45:21.210Z,27.09
2023-03-21T16:46:21.172Z,27.11
2023-03-21T16:47:21.099Z,27.11
2023-03-21T16:48:21.088Z,27.06
2023-03-21T16:49:21.021Z,27.09
2023-03-21T16:50:20.945Z,27.08
2023-03-21T16:51:20.864Z,27.12
2023-03-21T16:52:20.823Z,27.11
2023-03-21T16:53:20.782Z,27.13
2023-03-21T16:54:20.721Z,27.12
2023-03-21T16:55:20.653Z,27.16
2023-03-21T16:56:20.593Z,27.15
2023-03-21T16:57:20.530Z,27.15
2023-03-21T16:58:20.484Z,27.15
2023-03-21T16:59:20.452Z,27.20
2023-03-21T17:00:20.361Z,27.19
2023-03-21T17:01:20.333Z,27.13
2023-03-21T17:02:20.260Z,27.10
2023-03-21T17:03:20.256Z,27.16
2023-03-21T17:04:20.193Z,27.15
2023-03-21T17:05:20.100Z,27.17
2023-03-21T17:06:20.050Z,27.12
2023-03-21T17:07:19.975Z,27.15
2023-03-21T17:08:19.925Z,27.15
2023-03-21T17:09:19.907Z,27.15
2023-03-21T17:10:19.815Z,27.15
2023-03-21T17:11:19.752Z,27.23
2023-03-21T17:12:19.704Z,27.17
2023-03-21T17:13:19.645Z,27.18
2023-03-21T17:14:19.598Z,27.18
2023-03-21T17:15:19.545Z,27.26
2023-03-21T17:16:19.511Z,27.18
2023-03-21T17:17:19.435Z,27.20
2023-03-21T17:18:19.363Z,27.17
2023-03-21T17:19:19.322Z,27.20
2023-03-21T17:20:19.300Z,27.18
2023-03-21T17:21:19.232Z,27.16
2023-03-21T17:22:19.144Z,27.18
2023-03-21T17:23:19.089Z,27.17
2023-03-21T17:24:19.049Z,27.20
2023-03-21T17:57:17.075Z,27.32
2023-03-21T17:58:17.021Z,27.30
2023-03-21T17:59:16.967Z,27.25
2023-03-21T18:00:16.914Z,27.29
2023-03-21T18:01:16.847Z,27.26
2023-03-21T18:02:16.790Z,27.29
2023-03-21T18:03:18.509Z,27.32
2023-03-21T18:04:16.812Z,27.32
2023-03-21T18:05:16.870Z,27.32
2023-03-21T18:06:16.729Z,27.30
2023-03-21T18:07:24.563Z,27.34
2023-03-21T18:08:17.573Z,27.29
2023-03-21T18:09:19.083Z,27.29
2023-03-21T18:10:16.461Z,27.33
2023-03-21T18:11:16.412Z,27.29
2023-03-21T18:12:16.364Z,27.29
2023-03-21T18:13:16.302Z,27.34
2023-03-21T18:14:19.241Z,27.33
2023-03-21T18:15:19.337Z,27.37
2023-03-21T18:16:16.269Z,27.29
2023-03-21T18:17:16.078Z,27.32
2023-03-21T18:18:16.042Z,27.32
2023-03-21T18:19:16.049Z,27.33
2023-03-21T18:20:15.930Z,27.38
2023-03-21T18:21:18.200Z,27.33
2023-03-21T18:22:15.948Z,27.37
2023-03-21T18:23:16.058Z,27.32
2023-03-21T18:24:15.724Z,27.36
2023-03-21T18:25:15.670Z,27.31
2023-03-21T18:26:15.626Z,27.32
2023-03-21T18:27:17.281Z,27.37
2023-03-21T18:28:19.155Z,27.37
2023-03-21T18:30:36.205Z,27.30
2023-03-21T18:31:19.648Z,27.37
2023-03-21T18:32:15.309Z,27.30
2023-03-21T18:33:15.278Z,27.40
2023-03-21T18:34:15.219Z,27.36
2023-03-21T18:35:15.232Z,27.31
2023-03-21T18:36:15.319Z,27.34
2023-03-21T18:37:15.075Z,27.34
2023-03-21T18:38:15.018Z,27.38
2023-03-21T18:39:14.956Z,27.37
2023-03-21T18:40:14.910Z,27.40
2023-03-21T18:41:14.866Z,27.34
2023-03-21T18:42:18.913Z,27.42
2023-03-21T18:43:59.181Z,27.38
2023-03-21T18:44:19.364Z,27.36
2023-03-21T18:45:15.628Z,27.37
2023-03-21T18:46:14.692Z,27.36
2023-03-21T18:47:14.532Z,27.38
2023-03-21T18:48:14.525Z,27.38
2023-03-21T18:49:58.848Z,27.38
2023-03-21T18:50:15.650Z,27.39
2023-03-21T18:51:14.344Z,27.34
2023-03-21T18:52:14.270Z,27.37
2023-03-21T18:53:14.225Z,27.37
2023-03-21T18:54:14.165Z,27.40
2023-03-21T18:55:14.117Z,27.41
2023-03-21T18:56:46.897Z,27.37
2023-03-21T18:58:14.961Z,27.39
2023-03-21T18:59:13.922Z,27.38
2023-03-21T19:00:13.922Z,27.40
2023-03-21T19:01:13.912Z,27.41
2023-03-21T19:02:13.852Z,27.40
2023-03-21T19:03:26.976Z,27.41
2023-03-21T19:04:23.968Z,27.38
2023-03-21T19:05:14.701Z,27.39
2023-03-21T19:06:14.220Z,27.37
2023-03-21T19:07:13.498Z,27.40
2023-03-21T19:08:13.450Z,27.39
2023-03-21T19:09:14.367Z,27.38
2023-03-21T19:10:18.154Z,27.41
2023-03-21T19:11:14.296Z,27.42
2023-03-21T19:12:13.240Z,27.42
2023-03-21T19:13:13.184Z,27.44
2023-03-21T19:15:13.289Z,27.44
2023-03-21T19:16:13.050Z,27.42
2023-03-21T19:18:37.642Z,27.42
2023-03-21T19:19:13.956Z,27.44
2023-03-21T19:20:12.820Z,27.45
2023-03-21T19:21:12.788Z,27.41
2023-03-21T19:22:12.762Z,27.45
2023-03-21T19:23:12.654Z,27.44
2023-03-21T19:24:29.065Z,27.44
2023-03-21T19:25:13.551Z,27.45
2023-03-21T19:26:12.484Z,27.41
2023-03-21T19:27:12.427Z,27.42
2023-03-21T19:28:12.361Z,27.44
2023-03-21T19:29:12.330Z,27.42
2023-03-21T19:30:15.461Z,27.45
2023-03-21T19:31:12.175Z,27.41
2023-03-21T19:32:12.210Z,27.43
2023-03-21T19:33:12.071Z,27.42
2023-03-21T19:34:12.018Z,27.42
2023-03-21T19:35:11.962Z,27.43
2023-03-21T19:36:21.136Z,27.41
2023-03-21T19:37:12.845Z,27.46
2023-03-21T19:38:11.781Z,27.42
2023-03-21T19:39:11.726Z,27.46
2023-03-21T19:40:11.691Z,27.47
2023-03-21T19:41:11.620Z,27.44
2023-03-21T19:42:16.791Z,27.42
2023-03-21T19:43:31.832Z,27.44
2023-03-21T19:44:12.432Z,27.44
2023-03-21T19:45:11.386Z,27.47
2023-03-21T19:46:11.344Z,27.46
2023-03-21T19:47:11.308Z,27.40
2023-03-21T19:48:11.205Z,27.42
2023-03-21T19:49:11.172Z,27.41
2023-03-21T19:51:27.312Z,27.46
2023-03-21T19:52:11.967Z,27.42
2023-03-21T19:53:10.890Z,27.46
2023-03-21T19:54:10.826Z,27.46
2023-03-21T19:55:10.784Z,27.46
2023-03-21T19:56:20.757Z,27.43
2023-03-21T19:57:11.663Z,27.43
2023-03-21T19:58:10.592Z,27.50
2023-03-21T19:59:10.546Z,27.40
2023-03-21T20:00:10.498Z,27.46
2023-03-21T20:01:10.469Z,27.42
2023-03-21T20:02:34.145Z,27.49
2023-03-21T20:03:11.399Z,27.43
2023-03-21T20:04:10.279Z,27.47
2023-03-21T20:05:10.191Z,27.40
2023-03-21T20:06:10.150Z,27.43
2023-03-21T20:07:10.089Z,27.49
2023-03-21T20:08:11.110Z,27.47
2023-03-21T20:09:50.392Z,27.44
2023-03-21T20:10:10.925Z,27.42
2023-03-21T20:11:09.878Z,27.44
2023-03-21T20:12:09.814Z,27.44
2023-03-21T20:13:09.764Z,27.46
2023-03-21T20:14:09.704Z,27.48
2023-03-21T20:15:17.732Z,27.46
2023-03-21T20:16:10.956Z,27.50
2023-03-21T20:17:09.580Z,27.46
2023-03-21T20:18:09.499Z,27.51
2023-03-21T20:19:09.436Z,27.46
2023-03-21T20:20:09.380Z,27.47
2023-03-21T20:21:16.983Z,27.47
2023-03-21T20:22:20.237Z,27.44